Time;durP1;ratioP1;P1;durP2;ratioP2;P2;SDS_P1;SDS_P2;PMS_P1;PMS_P2;Temp;Humidity;BMP_temperature;BMP_pressure;BME280_temperature;BME280_humidity;BME280_pressure;Samples;Min_cycle;Max_cycle;Signal;HPM_P1;HPM_P2
2022/06/28 00:00:27;;;;;;;9.15;4.53;;;;;;;12.67;94.70;101878.09;5054610;28;20028;-86
2022/06/28 00:02:52;;;;;;;5.75;4.30;;;;;;;12.66;94.73;101879.00;5052871;28;20025;-85
2022/06/28 00:05:17;;;;;;;6.63;3.85;;;;;;;12.65;94.48;101880.81;5055190;28;20026;-86
2022/06/28 00:07:43;;;;;;;5.88;4.47;;;;;;;12.65;94.58;101885.28;5063738;28;20576;-86
2022/06/28 00:10:11;;;;;;;4.82;4.28;;;;;;;12.62;94.65;101878.31;5068754;28;20028;-86
2022/06/28 00:12:37;;;;;;;8.20;4.05;;;;;;;12.56;94.59;101869.66;5064146;28;20082;-85
2022/06/28 00:17:49;;;;;;;6.95;3.97;;;;;;;12.51;94.11;101864.53;5063250;28;20079;-85
2022/06/28 00:20:15;;;;;;;4.80;3.75;;;;;;;12.51;94.20;101866.34;5065659;28;20271;-85
2022/06/28 00:22:40;;;;;;;5.90;3.65;;;;;;;12.51;94.01;101871.69;5055005;28;20025;-86
2022/06/28 00:25:06;;;;;;;5.85;3.65;;;;;;;12.47;94.01;101868.25;5049694;28;20055;-86
2022/06/28 00:27:31;;;;;;;5.28;3.88;;;;;;;12.42;93.40;101862.25;5055584;28;20032;-85
2022/06/28 00:29:58;;;;;;;5.05;3.80;;;;;;;12.50;93.95;101878.81;5050792;28;20013;-86
2022/06/28 00:32:23;;;;;;;7.30;3.83;;;;;;;12.44;94.15;101871.91;5044807;28;20035;-85
2022/06/28 00:34:48;;;;;;;7.07;3.83;;;;;;;12.42;94.60;101881.81;5042321;28;20029;-85
2022/06/28 00:37:14;;;;;;;7.38;4.10;;;;;;;12.39;94.19;101887.28;5048618;28;20175;-85
2022/06/28 00:39:39;;;;;;;6.22;4.05;;;;;;;12.36;94.83;101884.72;5046668;28;20480;-85
2022/06/28 00:42:07;;;;;;;6.63;3.88;;;;;;;12.34;94.94;101883.06;5045829;28;20049;-85
2022/06/28 00:44:32;;;;;;;5.30;3.60;;;;;;;12.26;95.02;101880.72;5046485;28;20028;-85
2022/06/28 00:46:58;;;;;;;7.70;4.00;;;;;;;12.24;94.82;101890.56;5051833;28;20164;-85
2022/06/28 00:49:24;;;;;;;5.47;3.55;;;;;;;12.22;94.25;101889.78;5044155;28;20033;-85
2022/06/28 00:51:49;;;;;;;5.28;3.40;;;;;;;12.23;94.14;101891.50;5042150;28;20025;-86
2022/06/28 00:54:15;;;;;;;6.55;3.55;;;;;;;12.27;94.02;101893.13;5045557;28;20490;-85
2022/06/28 00:56:40;;;;;;;7.93;3.47;;;;;;;12.23;93.63;101895.97;5042034;28;20036;-85
2022/06/28 00:59:05;;;;;;;4.95;3.78;;;;;;;12.17;93.98;101887.28;5044177;28;20064;-85
2022/06/28 01:01:31;;;;;;;6.10;3.42;;;;;;;12.18;93.52;101893.50;5045532;28;20085;-86
2022/06/28 01:03:56;;;;;;;9.70;4.38;;;;;;;12.17;93.51;101892.63;5047001;28;20071;-85
2022/06/28 01:06:22;;;;;;;9.10;3.63;;;;;;;12.13;93.48;101896.34;5044879;28;20490;-85
2022/06/28 01:08:48;;;;;;;7.20;4.05;;;;;;;12.11;93.85;101897.34;5046925;28;20394;-85
2022/06/28 01:11:21;;;;;;;4.00;3.67;;;;;;;12.07;93.52;101893.91;5044584;28;20078;-85
2022/06/28 01:13:47;;;;;;;6.80;4.22;;;;;;;12.05;94.13;101895.81;5047863;28;20029;-85
2022/06/28 01:16:13;;;;;;;5.30;3.63;;;;;;;12.01;94.47;101891.50;5044252;28;20036;-86
2022/06/28 01:18:39;;;;;;;5.70;4.07;;;;;;;12.02;94.41;101900.38;5039192;28;20028;-85
2022/06/28 01:21:05;;;;;;;5.30;3.97;;;;;;;11.95;94.25;101902.41;5043105;28;20037;-85
2022/06/28 01:23:31;;;;;;;8.43;4.10;;;;;;;11.93;94.02;101893.63;5044917;28;20381;-85
2022/06/28 01:25:57;;;;;;;6.30;3.97;;;;;;;11.98;94.56;101912.97;5045176;28;20801;-85
2022/06/28 01:28:23;;;;;;;4.55;3.40;;;;;;;11.91;94.28;101900.78;5044798;28;20025;-85
2022/06/28 01:30:48;;;;;;;7.15;4.00;;;;;;;11.90;94.15;101909.75;5042201;28;20036;-86
2022/06/28 01:33:14;;;;;;;8.00;3.60;;;;;;;11.87;94.21;101915.19;5041055;28;20099;-85
2022/06/28 01:35:39;;;;;;;6.80;3.75;;;;;;;11.81;94.60;101904.75;5045805;28;20039;-86
2022/06/28 01:38:05;;;;;;;5.03;3.60;;;;;;;11.81;94.49;101918.94;5044273;28;20078;-84
2022/06/28 01:40:31;;;;;;;6.93;3.70;;;;;;;11.75;94.81;101913.84;5044472;28;20044;-84
2022/06/28 01:42:57;;;;;;;5.57;3.83;;;;;;;11.79;95.32;101912.81;5046434;28;20067;-85
2022/06/28 01:45:22;;;;;;;7.07;3.90;;;;;;;11.75;95.91;101913.00;5043165;28;20025;-85
2022/06/28 01:47:48;;;;;;;6.68;3.67;;;;;;;11.72;94.83;101914.84;5044209;28;20065;-85
2022/06/28 01:50:13;;;;;;;4.55;3.97;;;;;;;11.72;95.21;101913.97;5050759;28;20092;-85
2022/06/28 01:52:41;;;;;;;5.70;3.50;;;;;;;11.67;94.58;101915.94;5052573;28;20115;-84
2022/06/28 01:55:07;;;;;;;4.85;3.78;;;;;;;11.65;95.67;101909.78;5051431;28;20470;-85
2022/06/28 01:57:32;;;;;;;5.15;3.60;;;;;;;11.63;95.76;101907.19;5052438;28;20035;-86
2022/06/28 01:59:58;;;;;;;5.18;3.80;;;;;;;11.60;95.61;101919.78;5054082;28;20049;-87
2022/06/28 02:02:23;;;;;;;4.47;3.65;;;;;;;11.61;95.16;101924.16;5042716;28;20064;-87
2022/06/28 02:04:48;;;;;;;4.95;3.38;;;;;;;11.58;94.55;101925.16;5044144;28;20034;-84
2022/06/28 02:07:14;;;;;;;5.63;3.42;;;;;;;11.58;95.14;101924.28;5043899;28;20430;-86
2022/06/28 02:09:39;;;;;;;7.03;3.60;;;;;;;11.55;96.05;101917.28;5039404;28;20120;-86
2022/06/28 02:12:04;;;;;;;4.38;3.53;;;;;;;11.51;96.27;101925.44;5048271;28;20025;-86
2022/06/28 02:14:30;;;;;;;5.93;3.70;;;;;;;11.50;96.54;101926.38;5049029;28;20059;-86
2022/06/28 02:16:56;;;;;;;4.47;3.72;;;;;;;11.38;96.33;101920.56;5050778;28;20109;-86
2022/06/28 02:19:21;;;;;;;4.18;3.40;;;;;;;11.39;96.26;101934.78;5048973;28;20036;-86
2022/06/28 02:21:47;;;;;;;5.78;3.47;;;;;;;11.38;96.57;101943.69;5046992;28;20463;-86
2022/06/28 02:24:13;;;;;;;5.07;3.60;;;;;;;11.34;96.86;101945.59;5049844;28;20090;-86
2022/06/28 02:26:38;;;;;;;6.25;3.45;;;;;;;11.30;96.70;101941.31;5049882;28;20036;-86
2022/06/28 02:29:05;;;;;;;5.78;3.50;;;;;;;11.28;96.88;101942.28;5049403;28;20090;-86
2022/06/28 02:31:31;;;;;;;6.32;3.50;;;;;;;11.24;96.26;101941.50;5046782;28;20052;-86
2022/06/28 02:33:57;;;;;;;4.93;3.38;;;;;;;11.19;95.72;101944.34;5042984;28;20470;-86
2022/06/28 02:41:43;;;;;;;7.20;3.53;;;;;;;11.14;95.30;101948.97;5038799;28;20095;-86
2022/06/28 02:44:08;;;;;;;5.55;3.50;;;;;;;11.15;95.70;101957.84;5044492;28;20049;-86
2022/06/28 02:46:33;;;;;;;7.03;3.13;;;;;;;11.12;95.47;101952.59;5048154;28;20021;-86
2022/06/28 02:48:59;;;;;;;5.35;3.08;;;;;;;11.11;94.76;101961.53;5043342;28;20159;-86
2022/06/28 02:51:24;;;;;;;5.78;3.50;;;;;;;11.12;94.79;101969.50;5042958;28;20028;-86
2022/06/28 02:53:51;;;;;;;4.75;3.40;;;;;;;11.10;94.70;101973.13;5041988;28;20022;-86
2022/06/28 02:56:17;;;;;;;5.63;3.40;;;;;;;11.07;95.48;101976.75;5037418;28;20038;-86
2022/06/28 02:58:42;;;;;;;10.48;3.80;;;;;;;11.06;95.23;101974.16;5045018;28;20021;-86
2022/06/28 03:01:07;;;;;;;5.82;3.63;;;;;;;11.04;95.94;101976.88;5045053;28;20609;-85
2022/06/28 03:03:32;;;;;;;6.63;3.60;;;;;;;11.01;96.02;101978.78;5047272;28;20112;-88
2022/06/28 03:05:58;;;;;;;3.97;3.20;;;;;;;10.98;96.82;101980.63;5042775;28;20162;-85
2022/06/28 03:08:23;;;;;;;4.35;3.40;;;;;;;10.95;96.58;101986.06;5038526;28;20030;-85
2022/06/28 03:10:49;;;;;;;5.03;3.00;;;;;;;10.88;96.40;101981.00;5042542;28;20035;-85
2022/06/28 03:13:14;;;;;;;6.40;3.03;;;;;;;10.90;96.69;101984.47;5037526;28;20129;-85
2022/06/28 03:15:39;;;;;;;5.60;3.15;;;;;;;10.84;96.41;101982.03;5052621;28;20033;-84
2022/06/28 03:18:05;;;;;;;4.35;2.95;;;;;;;10.86;96.73;101993.47;5050229;28;20033;-85
2022/06/28 03:20:30;;;;;;;5.15;3.05;;;;;;;10.85;96.87;101995.28;5062986;28;20033;-85
2022/06/28 03:22:56;;;;;;;3.53;2.78;;;;;;;10.84;96.30;101998.00;5064962;28;20029;-85
2022/06/28 03:25:22;;;;;;;4.70;2.83;;;;;;;10.83;96.92;101994.47;5053626;28;20068;-85
2022/06/28 03:27:48;;;;;;;6.43;3.00;;;;;;;10.82;96.42;102000.69;5056136;28;20041;-85
2022/06/28 03:30:14;;;;;;;4.60;3.03;;;;;;;10.76;95.79;101995.59;5054933;28;20536;-85
2022/06/28 03:32:40;;;;;;;5.13;2.78;;;;;;;10.72;95.16;101986.81;5059542;28;20068;-85
2022/06/28 03:35:06;;;;;;;5.63;3.28;;;;;;;10.76;95.49;102006.25;5055003;28;20459;-85
2022/06/28 03:37:31;;;;;;;8.50;3.20;;;;;;;10.75;95.78;102009.84;5048330;28;20064;-86
2022/06/28 03:39:57;;;;;;;3.65;3.10;;;;;;;10.74;96.26;102013.41;5039958;28;20243;-85
2022/06/28 03:42:23;;;;;;;6.43;3.30;;;;;;;10.75;96.62;102012.50;5040246;28;20052;-85
2022/06/28 03:44:48;;;;;;;4.20;3.10;;;;;;;10.73;96.97;102007.19;5047712;28;20375;-85
2022/06/28 03:47:13;;;;;;;5.55;3.03;;;;;;;10.71;96.62;102006.41;5042833;28;20040;-85
2022/06/28 03:49:39;;;;;;;5.70;3.10;;;;;;;10.68;96.39;102003.81;5045663;28;20074;-85
2022/06/28 03:52:04;;;;;;;4.35;2.97;;;;;;;10.68;96.55;102001.16;5045654;28;20078;-86
2022/06/28 03:54:29;;;;;;;5.47;3.42;;;;;;;10.66;97.44;102003.03;5044196;28;20041;-85
2022/06/28 03:56:55;;;;;;;5.78;3.10;;;;;;;10.66;97.87;102010.16;5044741;28;20025;-85
2022/06/28 03:59:20;;;;;;;6.03;3.08;;;;;;;10.66;97.16;102015.47;5040938;28;20147;-85
2022/06/28 04:01:46;;;;;;;4.95;3.42;;;;;;;10.63;97.05;101999.59;5044211;28;20044;-84
2022/06/28 04:04:11;;;;;;;5.88;3.10;;;;;;;10.62;96.64;101998.72;5046927;28;20129;-85
2022/06/28 04:06:36;;;;;;;4.78;3.13;;;;;;;10.69;96.33;102007.34;5048427;28;20025;-85
2022/06/28 04:09:02;;;;;;;4.43;3.22;;;;;;;10.72;96.30;102007.25;5051284;28;20044;-85
2022/06/28 04:11:27;;;;;;;6.53;3.35;;;;;;;10.76;96.15;102005.38;5046716;28;20113;-85
2022/06/28 04:13:53;;;;;;;8.65;2.92;;;;;;;10.77;94.89;102002.66;5045724;28;21927;-85
2022/06/28 04:16:21;;;;;;;5.68;3.08;;;;;;;10.83;95.07;102013.13;5042802;28;20508;-85
2022/06/28 04:18:47;;;;;;;5.85;3.40;;;;;;;10.86;94.99;102009.47;5040190;28;20108;-85
2022/06/28 04:21:15;;;;;;;5.78;3.20;;;;;;;10.90;94.44;102008.44;5038863;28;20262;-85
2022/06/28 04:23:42;;;;;;;7.22;3.60;;;;;;;10.93;94.02;102005.69;5038877;28;20044;-85
2022/06/28 04:26:07;;;;;;;4.80;3.22;;;;;;;10.95;94.40;101996.72;5039074;28;20157;-85
2022/06/28 04:28:33;;;;;;;6.90;3.25;;;;;;;11.00;94.50;102011.69;5046105;28;20580;-84
2022/06/28 04:30:59;;;;;;;7.15;3.40;;;;;;;11.04;94.46;102014.19;5047196;28;20123;-85
2022/06/28 04:33:24;;;;;;;5.50;3.78;;;;;;;11.08;94.80;102012.28;5046124;28;20033;-84
2022/06/28 04:35:50;;;;;;;5.45;3.50;;;;;;;11.11;94.66;102018.34;5044138;28;20106;-85
2022/06/28 04:38:15;;;;;;;5.32;3.50;;;;;;;11.13;94.86;102015.66;5044470;28;20025;-84
2022/06/28 04:40:41;;;;;;;6.85;3.70;;;;;;;11.17;93.52;102011.97;5031369;28;20045;-84
2022/06/28 04:43:06;;;;;;;7.32;3.60;;;;;;;11.21;93.34;102013.59;5045896;28;20510;-85
2022/06/28 04:45:31;;;;;;;8.90;2.97;;;;;;;11.31;93.23;102011.47;5046961;28;20079;-84
2022/06/28 04:47:57;;;;;;;10.07;3.70;;;;;;;11.36;93.29;102018.38;5047903;28;20025;-85
2022/06/28 04:50:22;;;;;;;9.15;3.33;;;;;;;11.42;93.23;102018.19;5046910;28;20360;-84
2022/06/28 04:52:49;;;;;;;6.63;2.63;;;;;;;11.48;92.39;102017.94;5046408;28;20021;-85
2022/06/28 04:55:15;;;;;;;7.72;3.05;;;;;;;11.55;92.05;102021.25;5046837;28;20149;-85
2022/06/28 04:57:40;;;;;;;7.63;3.20;;;;;;;11.65;91.79;102027.13;5048385;28;20063;-86
2022/06/28 05:00:06;;;;;;;8.13;2.90;;;;;;;11.70;91.62;102030.50;5047539;28;20606;-85
2022/06/28 05:02:31;;;;;;;8.63;2.85;;;;;;;11.79;91.72;102032.84;5050638;28;20037;-85
2022/06/28 05:04:56;;;;;;;6.38;2.78;;;;;;;11.74;91.45;102021.44;5048761;28;20029;-85
2022/06/28 05:07:21;;;;;;;6.80;2.85;;;;;;;11.90;90.85;102032.47;5064878;28;20092;-84
2022/06/28 05:09:47;;;;;;;5.95;2.40;;;;;;;11.91;89.76;102021.75;5052473;28;20031;-85
2022/06/28 05:12:12;;;;;;;6.40;2.70;;;;;;;12.06;89.17;102032.75;5042484;28;20025;-85
2022/06/28 05:14:38;;;;;;;6.65;2.88;;;;;;;12.12;89.24;102038.75;5044237;28;20030;-85
2022/06/28 05:17:03;;;;;;;5.70;2.70;;;;;;;12.20;89.09;102030.41;5052428;28;20025;-85
2022/06/28 05:19:30;;;;;;;7.78;2.97;;;;;;;12.27;88.87;102034.59;5049230;28;20021;-85
2022/06/28 05:21:55;;;;;;;9.48;3.42;;;;;;;12.35;89.33;102026.28;5054948;28;20021;-86
2022/06/28 05:24:21;;;;;;;9.50;2.92;;;;;;;12.45;89.47;102033.00;5047512;28;20102;-86
2022/06/28 05:26:46;;;;;;;6.28;2.92;;;;;;;12.49;88.11;102020.41;5047314;28;20029;-84
2022/06/28 05:29:12;;;;;;;9.27;2.80;;;;;;;12.59;87.52;102027.13;5033660;28;20057;-85
2022/06/28 05:31:38;;;;;;;7.32;2.58;;;;;;;12.68;87.52;102024.06;5044432;28;20124;-86
2022/06/28 05:34:03;;;;;;;6.65;2.63;;;;;;;12.71;86.85;102013.28;5035806;28;20021;-86
2022/06/28 05:36:29;;;;;;;8.32;2.58;;;;;;;12.83;87.91;102018.09;5046244;28;20025;-85
2022/06/28 05:38:55;;;;;;;8.70;2.70;;;;;;;12.88;86.77;102007.22;5048020;28;20025;-87
2022/06/28 05:41:20;;;;;;;8.45;2.55;;;;;;;12.99;86.08;102012.97;5047182;28;20032;-85
2022/06/28 05:43:45;;;;;;;8.73;3.03;;;;;;;13.05;84.81;102014.53;5043082;28;20031;-86
2022/06/28 05:46:10;;;;;;;9.77;2.63;;;;;;;13.17;85.75;102019.34;5049773;28;20029;-84
2022/06/28 05:48:36;;;;;;;7.20;2.65;;;;;;;13.27;85.26;102004.66;5048487;28;20029;-84
2022/06/28 05:51:03;;;;;;;8.68;2.75;;;;;;;13.40;85.77;102000.50;5047768;28;20041;-85
2022/06/28 05:53:28;;;;;;;8.25;2.55;;;;;;;13.51;84.47;101996.50;5055887;28;20020;-84
2022/06/28 05:55:54;;;;;;;8.30;2.50;;;;;;;13.62;83.19;101997.75;5055027;28;20483;-84
2022/06/28 05:58:19;;;;;;;8.15;2.38;;;;;;;13.71;83.04;101996.47;5057116;28;20029;-85
2022/06/28 06:00:44;;;;;;;8.50;2.72;;;;;;;13.79;80.96;101991.63;5045402;28;20120;-85
2022/06/28 06:03:10;;;;;;;8.55;2.55;;;;;;;13.94;81.26;101990.06;5047779;28;20085;-84
2022/06/28 06:05:35;;;;;;;11.10;2.70;;;;;;;14.05;80.38;101997.59;5046798;28;20116;-84
2022/06/28 06:08:00;;;;;;;9.20;2.67;;;;;;;14.20;78.05;102002.19;5043797;28;20657;-84
2022/06/28 06:10:26;;;;;;;8.57;2.90;;;;;;;14.39;77.37;102003.06;5047643;28;20020;-84
2022/06/28 06:12:51;;;;;;;11.68;3.88;;;;;;;14.53;75.40;102004.22;5042363;28;20486;-86
2022/06/28 06:15:16;;;;;;;9.55;3.22;;;;;;;14.77;76.30;102011.06;5041619;28;20079;-85
2022/06/28 06:17:42;;;;;;;8.85;2.60;;;;;;;14.94;76.13;101997.69;5047772;28;20033;-85
2022/06/28 06:20:08;;;;;;;10.43;2.65;;;;;;;15.19;74.19;102004.47;5049938;28;20136;-84
2022/06/28 06:22:34;;;;;;;5.80;2.22;;;;;;;15.42;74.24;102009.50;5053257;28;20029;-85
2022/06/28 06:24:59;;;;;;;4.90;1.92;;;;;;;15.56;73.51;102008.78;5058035;28;20033;-84
2022/06/28 06:27:25;;;;;;;9.60;2.80;;;;;;;15.72;70.78;102016.00;5059205;28;20781;-85
2022/06/28 06:29:50;;;;;;;9.15;2.40;;;;;;;15.84;70.22;102015.34;5070519;28;20134;-85
2022/06/28 06:32:15;;;;;;;10.38;2.88;;;;;;;15.96;67.62;102021.88;5068298;28;20040;-84
2022/06/28 06:34:40;;;;;;;10.73;2.92;;;;;;;16.04;70.97;102022.31;5059015;28;20032;-86
2022/06/28 06:37:06;;;;;;;5.68;2.25;;;;;;;16.24;68.73;102024.78;5060019;28;20059;-87
2022/06/28 06:39:31;;;;;;;7.53;1.80;;;;;;;16.39;68.66;102020.38;5058240;28;20024;-86
2022/06/28 06:41:57;;;;;;;11.73;2.40;;;;;;;16.47;67.36;102019.91;5057199;28;20052;-87
2022/06/28 06:44:22;;;;;;;6.90;2.13;;;;;;;16.56;67.25;102016.72;5049851;28;20021;-87
2022/06/28 06:46:47;;;;;;;5.95;2.25;;;;;;;16.75;65.74;102030.00;5052161;28;20107;-86
2022/06/28 06:49:14;;;;;;;6.90;2.80;;;;;;;16.86;67.09;102025.72;5044340;28;20097;-86
2022/06/28 06:51:44;;;;;;;10.32;2.78;;;;;;;16.96;67.68;102022.50;5032885;28;20483;-86
2022/06/28 06:54:09;;;;;;;9.73;2.42;;;;;;;17.08;68.02;102024.47;5046104;28;20212;-86
2022/06/28 06:56:35;;;;;;;7.25;3.22;;;;;;;17.22;67.27;102042.47;5046480;28;20108;-87
2022/06/28 06:59:00;;;;;;;7.88;2.20;;;;;;;17.22;65.88;102037.06;5036304;28;20030;-85
2022/06/28 07:01:29;;;;;;;8.65;2.20;;;;;;;17.21;63.65;102035.34;5039348;28;20520;-87
2022/06/28 07:03:54;;;;;;;7.65;1.95;;;;;;;17.34;65.67;102028.25;5048950;28;20510;-86
2022/06/28 07:06:20;;;;;;;6.63;1.90;;;;;;;17.41;61.52;102043.97;5048575;28;20127;-85
2022/06/28 07:08:45;;;;;;;6.80;1.90;;;;;;;17.57;64.89;102035.81;5047987;28;20033;-88
2022/06/28 07:11:10;;;;;;;8.82;2.00;;;;;;;17.72;62.26;102044.75;5051378;28;20053;-87
2022/06/28 07:13:36;;;;;;;7.32;2.05;;;;;;;17.90;63.01;102051.75;5048271;28;20153;-85
2022/06/28 07:16:01;;;;;;;7.15;2.17;;;;;;;17.96;59.24;102041.53;5045857;28;20647;-86
2022/06/28 07:18:27;;;;;;;7.82;2.03;;;;;;;18.16;61.91;102035.75;5048591;28;20379;-85
2022/06/28 07:20:54;;;;;;;8.63;1.90;;;;;;;18.18;56.87;102033.81;5044531;28;20033;-86
2022/06/28 07:23:19;;;;;;;7.28;1.58;;;;;;;18.34;60.59;102039.09;5037541;28;20116;-87
2022/06/28 07:25:45;;;;;;;4.25;1.25;;;;;;;18.59;60.44;102036.53;5039877;28;20106;-86
2022/06/28 07:28:10;;;;;;;4.72;1.70;;;;;;;18.76;60.91;102046.22;5049660;28;20131;-85
2022/06/28 07:30:36;;;;;;;4.80;1.67;;;;;;;18.94;55.77;102046.84;5048751;28;20516;-86
2022/06/28 07:33:02;;;;;;;6.47;1.75;;;;;;;19.24;55.05;102040.34;5050410;28;20055;-87
2022/06/28 07:35:28;;;;;;;7.03;1.90;;;;;;;19.47;54.85;102039.59;5048316;28;20077;-86
2022/06/28 07:37:53;;;;;;;6.05;1.83;;;;;;;19.67;53.14;102034.69;5043052;28;20033;-85
2022/06/28 07:40:19;;;;;;;8.05;1.95;;;;;;;20.11;56.31;102043.22;5047337;28;20060;-87
2022/06/28 07:42:44;;;;;;;3.55;1.38;;;;;;;20.54;51.37;102044.66;5061482;28;20109;-86
2022/06/28 07:45:10;;;;;;;6.05;1.30;;;;;;;20.94;52.48;102036.22;5048129;28;20081;-85
2022/06/28 07:47:35;;;;;;;5.78;1.35;;;;;;;21.55;48.47;102036.97;5044149;28;20054;-85
2022/06/28 07:52:44;;;;;;;6.80;1.48;;;;;;;22.74;46.92;102038.16;5047073;28;20091;-86
2022/06/28 07:55:11;;;;;;;5.88;1.35;;;;;;;23.10;41.65;102036.06;5039770;28;20036;-87
2022/06/28 07:57:36;;;;;;;4.88;1.98;;;;;;;23.59;42.79;102015.53;5044976;28;20033;-86
2022/06/28 08:00:04;;;;;;;4.38;1.33;;;;;;;23.67;39.98;102026.63;5042943;28;20079;-86
2022/06/28 08:02:29;;;;;;;5.07;1.80;;;;;;;24.14;41.52;102018.81;5044180;28;20039;-85
2022/06/28 08:04:55;;;;;;;5.22;1.55;;;;;;;24.46;39.63;102017.81;5037704;28;20390;-85
2022/06/28 08:07:20;;;;;;;4.07;1.33;;;;;;;24.93;38.82;102023.44;5037484;28;20026;-86
2022/06/28 08:09:46;;;;;;;3.47;1.27;;;;;;;25.47;39.22;102020.09;5038427;28;20037;-85
2022/06/28 08:12:11;;;;;;;3.75;1.33;;;;;;;25.66;36.42;102024.63;5047887;28;20051;-85
2022/06/28 08:14:36;;;;;;;3.33;1.23;;;;;;;26.13;36.03;102021.06;5046161;28;20051;-84
2022/06/28 08:17:02;;;;;;;4.25;1.13;;;;;;;26.43;35.94;102011.69;5047591;28;20053;-85
2022/06/28 08:19:28;;;;;;;4.60;1.00;;;;;;;26.98;35.93;102017.91;5050914;28;20043;-85
2022/06/28 08:21:53;;;;;;;5.38;1.10;;;;;;;27.44;35.94;102013.19;5044014;28;20025;-85
2022/06/28 08:24:19;;;;;;;4.95;1.63;;;;;;;27.89;34.49;102008.53;5034690;28;20029;-86
2022/06/28 08:26:44;;;;;;;2.55;1.00;;;;;;;28.04;34.73;102006.88;5049007;28;20043;-85
2022/06/28 08:29:11;;;;;;;2.17;0.80;;;;;;;28.28;32.08;102006.97;5050146;28;20029;-85
2022/06/28 08:31:36;;;;;;;4.70;1.20;;;;;;;28.46;32.08;102003.28;5042603;28;20443;-86
2022/06/28 08:34:02;;;;;;;5.40;1.15;;;;;;;28.46;31.59;102009.63;5047737;28;20029;-85
2022/06/28 08:36:27;;;;;;;2.90;1.15;;;;;;;28.65;31.19;102008.47;5047400;28;20466;-86
2022/06/28 08:38:52;;;;;;;5.10;1.08;;;;;;;28.61;31.09;102006.25;5041085;28;20029;-86
2022/06/28 08:41:19;;;;;;;5.18;1.13;;;;;;;28.83;31.45;102000.09;5048612;28;20203;-85
2022/06/28 08:43:44;;;;;;;4.07;1.20;;;;;;;29.16;30.48;102000.16;5046658;28;20036;-85
2022/06/28 08:46:10;;;;;;;3.17;1.00;;;;;;;29.60;29.86;101997.91;5041021;28;20079;-85
2022/06/28 08:48:41;;;;;;;2.65;0.82;;;;;;;29.60;29.47;101983.31;5040221;28;20020;-85
2022/06/28 08:51:08;;;;;;;4.88;1.10;;;;;;;29.90;28.99;101995.41;5044475;28;20079;-84
2022/06/28 08:53:36;;;;;;;2.70;0.90;;;;;;;30.05;27.75;101996.34;5037622;28;20040;-85
2022/06/28 08:56:02;;;;;;;2.53;0.90;;;;;;;30.38;28.29;101996.22;5040701;28;20521;-85
2022/06/28 08:58:28;;;;;;;4.85;2.70;;;;;;;30.74;28.22;102000.13;5040502;28;20060;-85
2022/06/28 09:00:54;;;;;;;2.85;1.08;;;;;;;31.10;26.03;102002.28;5045828;28;20091;-84
2022/06/28 09:03:19;;;;;;;3.50;1.10;;;;;;;31.51;26.34;101993.63;5045116;28;20024;-87
2022/06/28 09:05:45;;;;;;;1.98;0.85;;;;;;;31.65;26.05;102001.06;5043671;28;20025;-85
2022/06/28 09:08:10;;;;;;;4.03;0.98;;;;;;;31.88;25.83;101994.63;5046835;28;20489;-85
2022/06/28 09:10:37;;;;;;;3.63;1.00;;;;;;;31.99;24.52;101992.25;5045676;28;20021;-83
2022/06/28 09:13:07;;;;;;;3.42;0.90;;;;;;;31.94;27.22;101982.84;5042874;28;20493;-83
2022/06/28 09:16:04;;;;;;;3.28;0.93;;;;;;;32.82;28.30;101990.03;5042623;28;20160;-85
2022/06/28 09:18:36;;;;;;;4.38;2.33;;;;;;;33.26;25.09;101986.19;5042045;28;20041;-84
2022/06/28 09:21:06;;;;;;;3.75;0.90;;;;;;;33.38;25.52;101972.69;5048383;28;20044;-84
2022/06/28 09:23:34;;;;;;;2.53;1.05;;;;;;;33.95;23.91;101966.91;5047534;28;20056;-85
2022/06/28 09:26:06;;;;;;;2.35;0.88;;;;;;;34.48;24.29;101982.00;5041238;28;20029;-85
2022/06/28 09:28:32;;;;;;;1.90;0.90;;;;;;;34.64;23.91;101979.72;5041494;28;20572;-85
2022/06/28 09:31:22;;;;;;;2.50;0.85;;;;;;;35.25;25.29;101969.56;5046682;28;20279;-85
2022/06/28 09:33:49;;;;;;;1.92;0.80;;;;;;;34.61;21.47;101970.97;5043486;28;20025;-84
2022/06/28 09:36:18;;;;;;;5.30;1.00;;;;;;;34.51;23.94;101963.09;5043071;28;20025;-85
2022/06/28 09:38:44;;;;;;;2.03;0.95;;;;;;;34.94;23.39;101966.31;5044515;28;20100;-84
2022/06/28 09:41:25;;;;;;;1.98;0.70;;;;;;;35.19;23.72;101963.78;5042984;28;20043;-85
2022/06/28 09:44:00;;;;;;;2.85;0.73;;;;;;;35.24;23.64;101962.31;5026904;28;20570;-85
2022/06/28 09:46:27;;;;;;;2.65;1.08;;;;;;;35.36;21.91;101961.44;5045764;28;20299;-84
2022/06/28 09:49:06;;;;;;;3.70;1.17;;;;;;;35.28;21.82;101956.13;5041749;28;20029;-84
2022/06/28 09:51:34;;;;;;;4.50;0.82;;;;;;;35.26;21.26;101952.72;5042250;28;20834;-84
2022/06/28 09:54:06;;;;;;;9.88;4.63;;;;;;;34.97;22.52;101956.75;5042431;28;20355;-84
2022/06/28 09:56:41;;;;;;;3.92;0.90;;;;;;;35.14;23.48;101948.91;5048682;28;20064;-84
2022/06/28 09:59:08;;;;;;;3.03;0.90;;;;;;;35.51;20.61;101952.09;5046078;28;20052;-85
2022/06/28 10:01:34;;;;;;;2.60;0.90;;;;;;;35.93;20.86;101950.66;5045027;28;20098;-85
2022/06/28 10:03:59;;;;;;;2.38;1.10;;;;;;;36.35;22.68;101951.09;5047310;28;20021;-85
2022/06/28 10:06:26;;;;;;;2.58;0.82;;;;;;;36.83;21.33;101940.34;5047468;28;20024;-84
2022/06/28 10:08:51;;;;;;;3.85;1.00;;;;;;;36.88;20.48;101950.75;5036868;28;20111;-85
2022/06/28 10:11:18;;;;;;;4.18;0.90;;;;;;;36.52;19.99;101945.91;5046521;28;20104;-84
2022/06/28 10:16:46;;;;;;;2.35;1.00;;;;;;;36.44;21.64;101946.16;5046928;28;20044;-85
2022/06/28 10:19:17;;;;;;;2.33;0.95;;;;;;;36.88;19.03;101939.66;5045460;28;20090;-85
2022/06/28 10:21:42;;;;;;;2.80;0.93;;;;;;;37.54;18.67;101932.63;5044151;28;20402;-85
2022/06/28 10:24:08;;;;;;;3.40;1.00;;;;;;;37.61;20.67;101939.81;5046112;28;20025;-85
2022/06/28 10:26:33;;;;;;;3.58;0.90;;;;;;;38.05;20.27;101935.03;5046059;28;20036;-85
2022/06/28 10:29:07;;;;;;;3.17;0.95;;;;;;;38.13;20.11;101937.50;5042403;28;20414;-85
2022/06/28 10:31:39;;;;;;;5.38;1.50;;;;;;;38.17;18.82;101929.53;5041673;28;20044;-84
2022/06/28 10:34:08;;;;;;;5.33;0.90;;;;;;;38.71;19.26;101921.22;5043068;28;20029;-85
2022/06/28 10:36:41;;;;;;;1.90;0.88;;;;;;;39.31;20.24;101923.84;5050062;28;20108;-83
2022/06/28 10:39:06;;;;;;;3.53;0.98;;;;;;;39.65;17.90;101915.66;5046114;28;20068;-83
2022/06/28 10:41:37;;;;;;;2.72;0.80;;;;;;;39.06;17.14;101919.34;5049742;28;20041;-83
2022/06/28 10:44:08;;;;;;;1.38;0.98;;;;;;;39.21;19.58;101909.66;5055226;28;20043;-84
2022/06/28 10:46:33;;;;;;;1.55;0.75;;;;;;;39.56;17.25;101902.13;5041939;28;20099;-84
2022/06/28 10:49:01;;;;;;;3.05;1.00;;;;;;;40.01;17.59;101895.81;5048305;28;20136;-84
2022/06/28 10:51:27;;;;;;;3.20;1.10;;;;;;;40.53;18.37;101887.31;5047357;28;20025;-83
2022/06/28 10:54:00;;;;;;;2.25;1.00;;;;;;;40.44;17.02;101888.81;5043467;28;20033;-85
2022/06/28 10:56:27;;;;;;;2.78;0.93;;;;;;;39.07;17.42;101889.56;5045839;28;20041;-82
2022/06/28 10:59:09;;;;;;;2.50;1.08;;;;;;;39.01;18.77;101898.91;5043637;28;20029;-85
2022/06/28 11:01:41;;;;;;;2.03;0.80;;;;;;;39.64;18.16;101886.97;5051138;28;20078;-83
2022/06/28 11:04:28;;;;;;;2.95;0.90;;;;;;;40.00;19.00;101882.13;5046724;28;20037;-84
2022/06/28 11:07:19;;;;;;;1.88;0.80;;;;;;;39.93;15.92;101882.28;5039975;28;20029;-82
2022/06/28 11:09:52;;;;;;;1.83;0.90;;;;;;;40.09;17.57;101884.28;5047832;28;20411;-84
2022/06/28 11:12:37;;;;;;;1.83;0.90;;;;;;;40.43;17.24;101873.19;5048911;28;20484;-84
2022/06/28 11:15:05;;;;;;;2.63;0.73;;;;;;;40.39;15.94;101866.41;5043228;28;20035;-84
2022/06/28 11:17:35;;;;;;;1.30;0.73;;;;;;;40.28;16.04;101870.97;5046641;28;20029;-84
2022/06/28 11:20:09;;;;;;;3.42;1.13;;;;;;;40.01;16.74;101864.31;5043207;28;20071;-84
2022/06/28 11:22:45;;;;;;;1.75;0.90;;;;;;;40.41;17.29;101864.22;5045547;28;20074;-85
2022/06/28 11:25:16;;;;;;;2.25;1.10;;;;;;;38.20;17.62;101870.66;5046964;28;20580;-85
2022/06/28 11:27:55;;;;;;;1.75;0.82;;;;;;;38.31;20.28;101863.44;5037782;28;20064;-83
2022/06/28 11:30:23;;;;;;;2.60;1.10;;;;;;;37.69;18.98;101852.56;5048084;28;20071;-83
2022/06/28 11:32:50;;;;;;;2.08;0.80;;;;;;;38.43;18.11;101849.59;5049199;28;20127;-83
2022/06/28 11:35:18;;;;;;;2.70;0.90;;;;;;;39.24;16.98;101845.16;5066661;28;20036;-82